Time;durP1;ratioP1;P1;durP2;ratioP2;P2;SDS_P1;SDS_P2;PMS_P1;PMS_P2;Temp;Humidity;BMP_temperature;BMP_pressure;BME280_temperature;BME280_humidity;BME280_pressure;Samples;Min_cycle;Max_cycle;Signal;HPM_P1;HPM_P2
2022/05/31 00:00:32;;;;;;;;;;;15.80;99.90;;;;;;4593632;19;19914;-28
2022/05/31 00:02:09;;;;;;;;;;;15.80;99.90;;;;;;4593495;19;19931;-25
2022/05/31 00:03:40;;;;;;;;;;;15.80;99.90;;;;;;4591631;19;19918;-23
2022/05/31 00:05:11;;;;;;;;;;;15.70;99.90;;;;;;4592209;19;19915;-24
2022/05/31 00:06:42;;;;;;;;;;;15.80;99.90;;;;;;4592479;19;20340;-23
2022/05/31 00:08:13;;;;;;;;;;;15.80;99.90;;;;;;4593075;19;19926;-25
2022/05/31 00:09:44;;;;;;;;;;;15.80;99.90;;;;;;4591018;19;19915;-25
2022/05/31 00:11:15;;;;;;;;;;;15.70;99.90;;;;;;4592132;19;19914;-24
2022/05/31 00:12:46;;;;;;;;;;;15.70;99.90;;;;;;4591894;19;19915;-23
2022/05/31 00:14:18;;;;;;;;;;;15.70;99.90;;;;;;4592741;19;20279;-26
2022/05/31 00:15:48;;;;;;;;;;;15.70;99.90;;;;;;4591898;19;19995;-25
2022/05/31 00:17:19;;;;;;;;;;;15.70;99.90;;;;;;4591101;19;19919;-24
2022/05/31 00:18:50;;;;;;;;;;;15.70;99.90;;;;;;4592137;19;19922;-24
2022/05/31 00:20:21;;;;;;;;;;;15.70;99.90;;;;;;4592449;19;20310;-22
2022/05/31 00:21:55;;;;;;;;;;;15.70;99.90;;;;;;4593211;19;19919;-23
2022/05/31 00:23:26;;;;;;;;;;;15.70;99.90;;;;;;4592273;19;19918;-25
2022/05/31 00:24:57;;;;;;;;;;;15.70;99.90;;;;;;4592490;19;20317;-24
2022/05/31 00:26:28;;;;;;;;;;;15.70;99.90;;;;;;4593384;19;19923;-23
2022/05/31 00:27:59;;;;;;;;;;;15.70;99.90;;;;;;4593435;19;19923;-23
2022/05/31 00:29:30;;;;;;;;;;;15.70;99.90;;;;;;4593809;19;19962;-24
2022/05/31 00:31:01;;;;;;;;;;;15.70;99.90;;;;;;4591608;19;20358;-23
2022/05/31 00:32:34;;;;;;;;;;;15.70;99.90;;;;;;4591919;19;19998;-24
2022/05/31 00:34:05;;;;;;;;;;;15.70;99.90;;;;;;4592902;19;19937;-24
2022/05/31 00:35:38;;;;;;;;;;;15.70;99.90;;;;;;4592544;19;19911;-23
2022/05/31 00:37:09;;;;;;;;;;;15.70;99.90;;;;;;4591787;19;19971;-24
2022/05/31 00:38:40;;;;;;;;;;;15.70;99.90;;;;;;4591662;19;20329;-23
2022/05/31 00:40:11;;;;;;;;;;;15.70;99.90;;;;;;4592368;19;19922;-24
2022/05/31 00:41:42;;;;;;;;;;;15.70;99.90;;;;;;4592482;19;19923;-25
2022/05/31 00:43:14;;;;;;;;;;;15.70;99.90;;;;;;4591670;19;20340;-24
2022/05/31 00:44:45;;;;;;;;;;;15.70;99.90;;;;;;4592715;19;19922;-23
2022/05/31 00:46:16;;;;;;;;;;;15.70;99.90;;;;;;4592935;19;20365;-24
2022/05/31 00:47:47;;;;;;;;;;;15.60;99.90;;;;;;4592169;19;19939;-25
2022/05/31 00:49:28;;;;;;;;;;;15.60;99.90;;;;;;4592804;19;19915;-25
2022/05/31 00:51:06;;;;;;;;;;;15.70;99.90;;;;;;4592291;19;19918;-23
2022/05/31 00:52:42;;;;;;;;;;;15.60;99.90;;;;;;4591575;19;19992;-24
2022/05/31 00:54:14;;;;;;;;;;;15.70;99.90;;;;;;4591168;19;19921;-24
2022/05/31 00:55:46;;;;;;;;;;;15.70;99.90;;;;;;4592041;19;19915;-23
2022/05/31 00:57:17;;;;;;;;;;;15.70;99.90;;;;;;4592806;19;19923;-27
2022/05/31 00:59:08;;;;;;;;;;;15.60;99.90;;;;;;4590914;19;19921;-25
2022/05/31 01:00:39;;;;;;;;;;;15.60;99.90;;;;;;4587821;19;20568;-24
2022/05/31 01:02:11;;;;;;;;;;;15.60;99.90;;;;;;4590880;19;19922;-25
2022/05/31 01:03:42;;;;;;;;;;;15.70;99.90;;;;;;4588504;19;20264;-23
2022/05/31 01:05:13;;;;;;;;;;;15.70;99.90;;;;;;4590498;19;19943;-26
2022/05/31 01:06:44;;;;;;;;;;;15.70;99.90;;;;;;4591706;19;19922;-23
2022/05/31 01:08:15;;;;;;;;;;;15.60;99.90;;;;;;4592275;19;19911;-25
2022/05/31 01:09:46;;;;;;;;;;;15.60;99.90;;;;;;4592292;19;19923;-23
2022/05/31 01:11:18;;;;;;;;;;;15.60;99.90;;;;;;4592330;19;19925;-23
2022/05/31 01:12:49;;;;;;;;;;;15.60;99.90;;;;;;4591779;19;20251;-23
2022/05/31 01:14:20;;;;;;;;;;;15.70;99.90;;;;;;4592179;19;20327;-24
2022/05/31 01:16:00;;;;;;;;;;;15.60;99.90;;;;;;4592430;19;19946;-23
2022/05/31 01:17:30;;;;;;;;;;;15.60;99.90;;;;;;4591626;19;19911;-23
2022/05/31 01:19:01;;;;;;;;;;;15.60;99.90;;;;;;4591911;19;19918;-24
2022/05/31 01:20:32;;;;;;;;;;;15.60;99.90;;;;;;4591823;19;19923;-23
2022/05/31 01:22:03;;;;;;;;;;;15.60;99.90;;;;;;4592035;19;20379;-25
2022/05/31 01:23:41;;;;;;;;;;;15.60;99.90;;;;;;4591614;19;20254;-25
2022/05/31 01:25:12;;;;;;;;;;;15.60;99.90;;;;;;4590594;19;20354;-23
2022/05/31 01:26:43;;;;;;;;;;;15.60;99.90;;;;;;4591181;19;19911;-23
2022/05/31 01:28:32;;;;;;;;;;;15.60;99.90;;;;;;4591167;19;19948;-25
2022/05/31 01:30:05;;;;;;;;;;;15.60;99.90;;;;;;4591962;19;19994;-23
2022/05/31 01:31:41;;;;;;;;;;;15.60;99.90;;;;;;4591700;19;20265;-23
2022/05/31 01:33:15;;;;;;;;;;;15.60;99.90;;;;;;4590661;19;19926;-25
2022/05/31 01:34:57;;;;;;;;;;;15.60;99.90;;;;;;4591287;19;20404;-23
2022/05/31 01:36:33;;;;;;;;;;;15.60;99.90;;;;;;4590605;19;19915;-27
2022/05/31 01:38:11;;;;;;;;;;;15.60;99.90;;;;;;4590460;19;19915;-23
2022/05/31 01:40:02;;;;;;;;;;;15.50;99.90;;;;;;4590165;19;19915;-25
2022/05/31 01:41:52;;;;;;;;;;;15.60;99.90;;;;;;4591709;19;19970;-23
2022/05/31 01:43:23;;;;;;;;;;;15.60;99.90;;;;;;4588643;19;19946;-25
2022/05/31 01:44:55;;;;;;;;;;;15.60;99.90;;;;;;4591476;19;19996;-24
2022/05/31 01:46:27;;;;;;;;;;;15.60;99.90;;;;;;4591035;19;19915;-23
2022/05/31 01:47:59;;;;;;;;;;;15.60;99.90;;;;;;4591305;19;20312;-25
2022/05/31 01:49:32;;;;;;;;;;;15.50;99.90;;;;;;4591085;19;19925;-24
2022/05/31 01:51:03;;;;;;;;;;;15.60;99.90;;;;;;4591060;19;19917;-25
2022/05/31 01:52:34;;;;;;;;;;;15.50;99.90;;;;;;4590916;19;20339;-30
2022/05/31 01:54:05;;;;;;;;;;;15.50;99.90;;;;;;4591282;19;20351;-23
2022/05/31 01:55:37;;;;;;;;;;;15.50;99.90;;;;;;4591102;19;19935;-23
2022/05/31 01:57:08;;;;;;;;;;;15.50;99.90;;;;;;4590286;19;20270;-24
2022/05/31 01:58:40;;;;;;;;;;;15.40;99.90;;;;;;4589382;19;20237;-24
2022/05/31 02:00:12;;;;;;;;;;;15.40;99.90;;;;;;4590009;19;19994;-24
2022/05/31 02:01:43;;;;;;;;;;;15.40;99.90;;;;;;4589627;19;19926;-24
2022/05/31 02:03:16;;;;;;;;;;;15.40;99.90;;;;;;4590611;19;19914;-24
2022/05/31 02:04:47;;;;;;;;;;;15.40;99.90;;;;;;4590736;19;19914;-24
2022/05/31 02:06:24;;;;;;;;;;;15.40;99.90;;;;;;4591423;19;19915;-23
2022/05/31 02:07:55;;;;;;;;;;;15.40;99.90;;;;;;4591172;19;20234;-23
2022/05/31 02:09:26;;;;;;;;;;;15.40;99.90;;;;;;4591481;19;19916;-24
2022/05/31 02:10:57;;;;;;;;;;;15.40;99.90;;;;;;4591186;19;19922;-24
2022/05/31 02:12:28;;;;;;;;;;;15.40;99.90;;;;;;4592475;19;19925;-26
2022/05/31 02:13:59;;;;;;;;;;;15.40;99.90;;;;;;4596486;19;19917;-23
2022/05/31 02:15:30;;;;;;;;;;;15.40;99.90;;;;;;4595325;19;20304;-23
2022/05/31 02:17:01;;;;;;;;;;;15.40;99.90;;;;;;4593474;19;20252;-23
2022/05/31 02:20:21;;;;;;;;;;;15.40;99.90;;;;;;4595259;19;19924;-27
2022/05/31 02:21:55;;;;;;;;;;;15.40;99.90;;;;;;4595500;19;20317;-24
2022/05/31 02:23:26;;;;;;;;;;;15.40;99.90;;;;;;4594452;19;19922;-26
2022/05/31 02:24:57;;;;;;;;;;;15.40;99.90;;;;;;4595786;19;19986;-25
2022/05/31 02:26:28;;;;;;;;;;;15.40;99.90;;;;;;4595616;19;19915;-23
2022/05/31 02:27:59;;;;;;;;;;;15.30;99.90;;;;;;4595417;19;19919;-23
2022/05/31 02:29:30;;;;;;;;;;;15.40;99.90;;;;;;4595284;19;19927;-23
2022/05/31 02:31:02;;;;;;;;;;;15.40;99.90;;;;;;4593027;19;19926;-25
2022/05/31 02:32:33;;;;;;;;;;;15.30;99.90;;;;;;4592861;19;19918;-25
2022/05/31 02:34:03;;;;;;;;;;;15.40;99.90;;;;;;4591246;19;20277;-23
2022/05/31 02:35:34;;;;;;;;;;;15.40;99.90;;;;;;4592494;19;19927;-27
2022/05/31 02:37:05;;;;;;;;;;;15.40;99.90;;;;;;4593237;19;19994;-25
2022/05/31 02:38:36;;;;;;;;;;;15.40;99.90;;;;;;4592966;19;19919;-24
2022/05/31 02:40:07;;;;;;;;;;;15.30;99.90;;;;;;4593163;19;19988;-25
2022/05/31 02:41:38;;;;;;;;;;;15.30;99.90;;;;;;4592906;19;19919;-25
2022/05/31 02:43:09;;;;;;;;;;;15.30;99.90;;;;;;4592607;19;19918;-24
2022/05/31 02:44:40;;;;;;;;;;;15.30;99.90;;;;;;4592494;19;19943;-26
2022/05/31 02:46:11;;;;;;;;;;;15.30;99.90;;;;;;4592901;19;19915;-24
2022/05/31 02:47:42;;;;;;;;;;;15.30;99.90;;;;;;4593210;19;19919;-27
2022/05/31 02:49:13;;;;;;;;;;;15.30;99.90;;;;;;4593006;19;20318;-23
2022/05/31 02:50:44;;;;;;;;;;;15.30;99.90;;;;;;4592605;19;19943;-23
2022/05/31 02:52:15;;;;;;;;;;;15.30;99.90;;;;;;4592748;19;19970;-23
2022/05/31 02:53:46;;;;;;;;;;;15.30;99.90;;;;;;4593150;19;19962;-23
2022/05/31 02:55:17;;;;;;;;;;;15.30;99.90;;;;;;4592903;19;19921;-23
2022/05/31 02:56:48;;;;;;;;;;;15.30;99.90;;;;;;4592661;19;20028;-25
2022/05/31 02:58:20;;;;;;;;;;;15.30;99.90;;;;;;4592117;19;19939;-23
2022/05/31 02:59:50;;;;;;;;;;;15.30;99.90;;;;;;4592967;19;19918;-26
2022/05/31 03:01:25;;;;;;;;;;;15.30;99.90;;;;;;4592060;19;19914;-25
2022/05/31 03:02:56;;;;;;;;;;;15.30;99.90;;;;;;4593750;19;20314;-25
2022/05/31 03:04:27;;;;;;;;;;;15.30;99.90;;;;;;4595219;19;19914;-25
2022/05/31 03:05:57;;;;;;;;;;;15.30;99.90;;;;;;4595140;19;19923;-23
2022/05/31 03:07:29;;;;;;;;;;;15.30;99.90;;;;;;4594456;19;19930;-23
2022/05/31 03:09:00;;;;;;;;;;;15.30;99.90;;;;;;4594593;19;20325;-23
2022/05/31 03:10:36;;;;;;;;;;;15.30;99.90;;;;;;4593477;19;19915;-23
2022/05/31 03:12:14;;;;;;;;;;;15.30;99.90;;;;;;4594043;19;19919;-23
2022/05/31 03:13:45;;;;;;;;;;;15.30;99.90;;;;;;4594534;19;20333;-25
2022/05/31 03:15:17;;;;;;;;;;;15.30;99.90;;;;;;4594657;19;20253;-25
2022/05/31 03:16:48;;;;;;;;;;;15.30;99.90;;;;;;4593900;19;20345;-26
2022/05/31 03:18:21;;;;;;;;;;;15.30;99.90;;;;;;4595222;19;19970;-23
2022/05/31 03:19:53;;;;;;;;;;;15.30;99.90;;;;;;4594482;19;19923;-24
2022/05/31 03:21:26;;;;;;;;;;;15.30;99.90;;;;;;4594250;19;20352;-26
2022/05/31 03:22:58;;;;;;;;;;;15.30;99.90;;;;;;4592853;19;20344;-25
2022/05/31 03:24:32;;;;;;;;;;;15.30;99.90;;;;;;4594261;19;19914;-25
2022/05/31 03:26:04;;;;;;;;;;;15.30;99.90;;;;;;4594056;19;19989;-24
2022/05/31 03:27:34;;;;;;;;;;;15.30;99.90;;;;;;4594100;19;19926;-25
2022/05/31 03:29:05;;;;;;;;;;;15.30;99.90;;;;;;4593151;19;20274;-23
2022/05/31 03:30:36;;;;;;;;;;;15.40;99.90;;;;;;4593168;19;19911;-25
2022/05/31 03:32:08;;;;;;;;;;;15.40;99.90;;;;;;4592796;19;19986;-28
2022/05/31 03:33:39;;;;;;;;;;;15.40;99.90;;;;;;4593301;19;19926;-24
2022/05/31 03:35:09;;;;;;;;;;;15.40;99.90;;;;;;4593881;19;20317;-24
2022/05/31 03:36:41;;;;;;;;;;;15.40;99.90;;;;;;4592918;19;19918;-22
2022/05/31 03:38:12;;;;;;;;;;;15.40;99.90;;;;;;4593465;19;19978;-24
2022/05/31 03:39:43;;;;;;;;;;;15.40;99.90;;;;;;4594449;19;20325;-23
2022/05/31 03:41:13;;;;;;;;;;;15.40;99.90;;;;;;4595159;19;19919;-26
2022/05/31 03:42:44;;;;;;;;;;;15.40;99.90;;;;;;4595076;19;19911;-23
2022/05/31 03:44:15;;;;;;;;;;;15.40;99.90;;;;;;4595791;19;20311;-26
2022/05/31 03:45:46;;;;;;;;;;;15.40;99.90;;;;;;4594773;19;19914;-24
2022/05/31 03:47:17;;;;;;;;;;;15.40;99.90;;;;;;4593348;19;19911;-25
2022/05/31 03:48:48;;;;;;;;;;;15.40;99.90;;;;;;4594831;19;20364;-25
2022/05/31 03:50:19;;;;;;;;;;;15.50;99.90;;;;;;4596587;19;20326;-22
2022/05/31 03:51:50;;;;;;;;;;;15.50;99.90;;;;;;4592576;19;19927;-25
2022/05/31 03:53:21;;;;;;;;;;;15.60;99.90;;;;;;4591436;19;19945;-23
2022/05/31 03:54:52;;;;;;;;;;;15.60;99.90;;;;;;4594437;19;19966;-24
2022/05/31 03:56:24;;;;;;;;;;;15.70;99.90;;;;;;4594825;19;20248;-23
2022/05/31 03:57:55;;;;;;;;;;;15.60;99.90;;;;;;4594283;19;19910;-25
2022/05/31 03:59:26;;;;;;;;;;;15.70;99.90;;;;;;4592077;19;19911;-23
2022/05/31 04:00:58;;;;;;;;;;;15.70;99.90;;;;;;4592407;19;19919;-25
2022/05/31 04:02:29;;;;;;;;;;;15.80;99.90;;;;;;4593090;19;19919;-24
2022/05/31 04:04:03;;;;;;;;;;;15.80;99.90;;;;;;4591709;19;19911;-26
2022/05/31 04:05:34;;;;;;;;;;;15.80;99.90;;;;;;4593495;19;20246;-26
2022/05/31 04:07:05;;;;;;;;;;;16.00;99.90;;;;;;4592675;19;19938;-23
2022/05/31 04:08:36;;;;;;;;;;;16.00;99.90;;;;;;4592730;19;20331;-23
2022/05/31 04:10:07;;;;;;;;;;;15.90;99.90;;;;;;4593240;19;19921;-24
2022/05/31 04:11:38;;;;;;;;;;;15.90;99.90;;;;;;4593635;19;19917;-24
2022/05/31 04:13:09;;;;;;;;;;;15.80;99.90;;;;;;4594001;19;19929;-24
2022/05/31 04:14:40;;;;;;;;;;;15.80;99.90;;;;;;4593829;19;19935;-24
2022/05/31 04:16:12;;;;;;;;;;;15.80;99.90;;;;;;4593048;19;19915;-25
2022/05/31 04:17:43;;;;;;;;;;;15.80;99.90;;;;;;4591131;19;19974;-23
2022/05/31 04:19:14;;;;;;;;;;;15.70;99.90;;;;;;4592798;19;19919;-24
2022/05/31 04:20:45;;;;;;;;;;;15.80;99.90;;;;;;4593642;19;19919;-23
2022/05/31 04:22:16;;;;;;;;;;;15.80;99.90;;;;;;4593248;19;19939;-24
2022/05/31 04:23:59;;;;;;;;;;;15.80;99.90;;;;;;4590831;19;19970;-25
2022/05/31 04:25:30;;;;;;;;;;;15.70;99.90;;;;;;4592992;19;19914;-24
2022/05/31 04:27:01;;;;;;;;;;;15.70;99.90;;;;;;4590279;19;19918;-26
2022/05/31 04:28:32;;;;;;;;;;;15.80;99.90;;;;;;4592662;19;19943;-25
2022/05/31 04:30:03;;;;;;;;;;;15.70;99.90;;;;;;4592975;19;20316;-24
2022/05/31 04:31:34;;;;;;;;;;;15.80;99.90;;;;;;4592958;19;19918;-23
2022/05/31 04:33:05;;;;;;;;;;;15.80;99.90;;;;;;4592497;19;20292;-25
2022/05/31 04:34:36;;;;;;;;;;;15.70;99.90;;;;;;4592074;19;19911;-26
2022/05/31 04:36:08;;;;;;;;;;;15.70;99.90;;;;;;4591902;19;20041;-26
2022/05/31 04:37:39;;;;;;;;;;;15.80;99.90;;;;;;4592855;19;19910;-23
2022/05/31 04:39:10;;;;;;;;;;;15.80;99.90;;;;;;4592638;19;19915;-23
2022/05/31 04:40:41;;;;;;;;;;;15.70;99.90;;;;;;4591509;19;19997;-23
2022/05/31 04:42:12;;;;;;;;;;;15.70;99.90;;;;;;4591910;19;20245;-23
2022/05/31 04:43:42;;;;;;;;;;;15.80;99.90;;;;;;4591534;19;19942;-23
2022/05/31 04:45:14;;;;;;;;;;;15.70;99.90;;;;;;4591748;19;20377;-25
2022/05/31 04:46:44;;;;;;;;;;;15.70;99.90;;;;;;4591489;19;19919;-23
2022/05/31 04:48:15;;;;;;;;;;;15.80;99.90;;;;;;4592541;19;19974;-23
2022/05/31 04:49:46;;;;;;;;;;;15.70;99.90;;;;;;4592251;19;19991;-22
2022/05/31 04:51:17;;;;;;;;;;;15.80;99.90;;;;;;4590906;19;19938;-25
2022/05/31 04:52:48;;;;;;;;;;;15.70;99.90;;;;;;4592017;19;19956;-21
2022/05/31 04:54:20;;;;;;;;;;;15.70;99.90;;;;;;4593439;19;19930;-23
2022/05/31 04:55:51;;;;;;;;;;;15.70;99.90;;;;;;4590990;19;19960;-24
2022/05/31 04:57:22;;;;;;;;;;;15.70;99.90;;;;;;4591785;19;20002;-23
2022/05/31 04:58:53;;;;;;;;;;;15.80;99.90;;;;;;4590290;19;19934;-26
2022/05/31 05:00:24;;;;;;;;;;;15.80;99.90;;;;;;4592391;19;20243;-23
2022/05/31 05:01:55;;;;;;;;;;;15.90;99.90;;;;;;4592218;19;19966;-22
2022/05/31 05:03:26;;;;;;;;;;;15.90;99.90;;;;;;4591736;19;19919;-21
2022/05/31 05:04:57;;;;;;;;;;;15.90;99.90;;;;;;4593096;19;19919;-23
2022/05/31 05:06:28;;;;;;;;;;;16.00;99.90;;;;;;4590882;19;19910;-26
2022/05/31 05:07:58;;;;;;;;;;;16.00;99.90;;;;;;4591357;19;19914;-24
2022/05/31 05:09:30;;;;;;;;;;;16.10;99.90;;;;;;4591328;19;19930;-23
2022/05/31 05:11:04;;;;;;;;;;;16.20;99.90;;;;;;4591762;19;19915;-23
2022/05/31 05:12:35;;;;;;;;;;;16.20;99.90;;;;;;4591693;19;19926;-25
2022/05/31 05:14:06;;;;;;;;;;;16.20;99.90;;;;;;4591891;19;19922;-23
2022/05/31 05:15:40;;;;;;;;;;;16.20;99.90;;;;;;4592063;19;19982;-24
2022/05/31 05:17:11;;;;;;;;;;;16.20;99.90;;;;;;4591290;19;19986;-23
2022/05/31 05:18:42;;;;;;;;;;;16.20;99.90;;;;;;4591552;19;20344;-24
2022/05/31 05:20:13;;;;;;;;;;;16.20;99.90;;;;;;4592358;19;19911;-28
2022/05/31 05:21:47;;;;;;;;;;;16.20;99.90;;;;;;4590817;19;19918;-23
2022/05/31 05:23:18;;;;;;;;;;;16.20;99.90;;;;;;4591684;19;20340;-24
2022/05/31 05:24:49;;;;;;;;;;;16.20;99.90;;;;;;4589125;19;19910;-25
2022/05/31 05:26:20;;;;;;;;;;;16.20;99.90;;;;;;4591228;19;19962;-23
2022/05/31 05:27:51;;;;;;;;;;;16.20;99.90;;;;;;4591987;19;20297;-27
2022/05/31 05:31:19;;;;;;;;;;;16.20;99.90;;;;;;4591383;19;19911;-24
2022/05/31 05:32:49;;;;;;;;;;;16.10;99.90;;;;;;4591766;19;19918;-24
2022/05/31 05:34:21;;;;;;;;;;;16.20;99.90;;;;;;4591962;19;19978;-22
2022/05/31 05:35:51;;;;;;;;;;;16.20;99.90;;;;;;4592212;19;19918;-24
2022/05/31 05:37:22;;;;;;;;;;;16.20;99.90;;;;;;4591566;19;19921;-26
2022/05/31 05:38:53;;;;;;;;;;;16.20;99.90;;;;;;4591430;19;19998;-26
2022/05/31 05:40:24;;;;;;;;;;;16.10;99.90;;;;;;4591687;19;20241;-27
2022/05/31 05:41:55;;;;;;;;;;;16.10;99.90;;;;;;4591290;19;19915;-24
2022/05/31 05:43:26;;;;;;;;;;;16.10;99.90;;;;;;4590697;19;19919;-23
2022/05/31 05:44:58;;;;;;;;;;;16.20;99.90;;;;;;4591410;19;19974;-24
2022/05/31 05:46:29;;;;;;;;;;;16.20;99.90;;;;;;4591451;19;20234;-25
2022/05/31 05:48:00;;;;;;;;;;;16.20;99.90;;;;;;4589825;19;19925;-25
2022/05/31 05:49:31;;;;;;;;;;;16.40;99.90;;;;;;4590655;19;19915;-22
2022/05/31 05:51:09;;;;;;;;;;;16.40;99.90;;;;;;4590098;19;19919;-24
2022/05/31 05:52:40;;;;;;;;;;;16.40;99.90;;;;;;4591350;19;19915;-25
2022/05/31 05:54:11;;;;;;;;;;;16.40;99.90;;;;;;4591082;19;19922;-24
2022/05/31 05:55:42;;;;;;;;;;;16.30;99.90;;;;;;4588678;19;19985;-24
2022/05/31 05:57:13;;;;;;;;;;;16.20;99.90;;;;;;4591298;19;19934;-23
2022/05/31 05:58:45;;;;;;;;;;;16.20;99.90;;;;;;4591152;19;19922;-24
2022/05/31 06:00:16;;;;;;;;;;;16.20;99.90;;;;;;4589488;19;19925;-23
2022/05/31 06:01:48;;;;;;;;;;;16.20;99.90;;;;;;4590441;19;20372;-24
2022/05/31 06:03:26;;;;;;;;;;;16.20;99.90;;;;;;4590172;19;19922;-30
2022/05/31 06:04:58;;;;;;;;;;;16.30;99.90;;;;;;4590503;19;19982;-24
2022/05/31 06:06:31;;;;;;;;;;;16.30;99.90;;;;;;4591351;19;19915;-26
2022/05/31 06:08:03;;;;;;;;;;;16.20;99.90;;;;;;4590177;19;20480;-25
2022/05/31 06:09:34;;;;;;;;;;;16.30;99.90;;;;;;4591947;19;19915;-28
2022/05/31 06:11:05;;;;;;;;;;;16.20;99.90;;;;;;4591062;19;19914;-22
2022/05/31 06:12:36;;;;;;;;;;;16.20;99.90;;;;;;4591282;19;19921;-28
2022/05/31 06:14:15;;;;;;;;;;;16.30;99.90;;;;;;4590597;19;20101;-24
2022/05/31 06:15:47;;;;;;;;;;;16.30;99.90;;;;;;4589926;19;19919;-26
2022/05/31 06:17:20;;;;;;;;;;;16.30;99.90;;;;;;4589215;19;20318;-24
2022/05/31 06:18:52;;;;;;;;;;;16.30;99.90;;;;;;4589914;19;20321;-23
2022/05/31 06:20:23;;;;;;;;;;;16.30;99.90;;;;;;4589973;19;19946;-23
2022/05/31 06:21:54;;;;;;;;;;;16.30;99.90;;;;;;4590894;19;19956;-24
2022/05/31 06:23:25;;;;;;;;;;;16.20;99.90;;;;;;4589716;19;19919;-24
2022/05/31 06:24:57;;;;;;;;;;;16.20;99.90;;;;;;4590219;19;19949;-23
2022/05/31 06:26:29;;;;;;;;;;;16.30;99.90;;;;;;4589441;19;19918;-24
2022/05/31 06:28:00;;;;;;;;;;;16.20;99.90;;;;;;4591500;19;19914;-23
2022/05/31 06:29:31;;;;;;;;;;;16.20;99.90;;;;;;4589912;19;19922;-24
2022/05/31 06:31:02;;;;;;;;;;;16.20;99.90;;;;;;4590537;19;20336;-23
2022/05/31 06:32:32;;;;;;;;;;;16.20;99.90;;;;;;4589364;19;20347;-25
2022/05/31 06:34:03;;;;;;;;;;;16.20;99.90;;;;;;4591349;19;19914;-24
2022/05/31 06:35:36;;;;;;;;;;;16.20;99.90;;;;;;4590116;19;19978;-26
2022/05/31 06:37:10;;;;;;;;;;;16.20;99.90;;;;;;4589201;19;19922;-23
2022/05/31 06:38:41;;;;;;;;;;;16.20;99.90;;;;;;4590694;19;19919;-23
2022/05/31 06:40:12;;;;;;;;;;;16.20;99.90;;;;;;4589801;19;19926;-23
2022/05/31 06:41:43;;;;;;;;;;;16.20;99.90;;;;;;4590309;19;20329;-23
2022/05/31 06:43:14;;;;;;;;;;;16.20;99.90;;;;;;4589145;19;19932;-23
2022/05/31 06:44:45;;;;;;;;;;;16.20;99.90;;;;;;4591632;19;19922;-27
2022/05/31 06:46:16;;;;;;;;;;;16.20;99.90;;;;;;4590117;19;20029;-28
2022/05/31 06:47:48;;;;;;;;;;;16.20;99.90;;;;;;4589183;19;20330;-24
2022/05/31 06:49:18;;;;;;;;;;;16.30;99.90;;;;;;4591453;19;19942;-25
2022/05/31 06:50:49;;;;;;;;;;;16.30;99.90;;;;;;4590468;19;19990;-24
2022/05/31 06:57:48;;;;;;;;;;;16.20;99.90;;;;;;4589515;19;20264;-24
2022/05/31 06:59:19;;;;;;;;;;;16.20;99.90;;;;;;4592263;19;19986;-27
2022/05/31 07:00:50;;;;;;;;;;;16.20;99.90;;;;;;4593646;19;19919;-22
2022/05/31 07:02:21;;;;;;;;;;;16.20;99.90;;;;;;4594554;19;19914;-23
2022/05/31 07:03:52;;;;;;;;;;;15.90;99.90;;;;;;4593205;19;19999;-23
2022/05/31 07:05:23;;;;;;;;;;;15.70;99.90;;;;;;4594651;19;19978;-24
2022/05/31 07:06:54;;;;;;;;;;;15.60;99.90;;;;;;4594517;19;19919;-23
2022/05/31 07:08:25;;;;;;;;;;;15.50;99.90;;;;;;4594647;19;19934;-21
2022/05/31 07:09:56;;;;;;;;;;;15.40;99.90;;;;;;4595162;19;19914;-24
2022/05/31 07:11:27;;;;;;;;;;;15.40;99.90;;;;;;4594534;19;20373;-26
2022/05/31 07:12:58;;;;;;;;;;;15.40;99.90;;;;;;4593136;19;19923;-26
2022/05/31 07:14:29;;;;;;;;;;;15.40;99.90;;;;;;4594299;19;20352;-23
2022/05/31 07:16:00;;;;;;;;;;;15.40;99.90;;;;;;4595058;19;19962;-26
2022/05/31 07:17:31;;;;;;;;;;;15.30;99.90;;;;;;4590391;19;20252;-23
2022/05/31 07:19:03;;;;;;;;;;;15.30;99.90;;;;;;4593462;19;19943;-21
2022/05/31 07:20:34;;;;;;;;;;;15.30;99.90;;;;;;4594690;19;19970;-24
2022/05/31 07:22:05;;;;;;;;;;;15.30;99.90;;;;;;4594559;19;19952;-24
2022/05/31 07:23:38;;;;;;;;;;;15.30;99.90;;;;;;4593038;19;19925;-25
2022/05/31 07:25:09;;;;;;;;;;;15.30;99.90;;;;;;4594185;19;19929;-24
2022/05/31 07:26:40;;;;;;;;;;;15.30;99.90;;;;;;4594490;19;19970;-23
2022/05/31 07:28:10;;;;;;;;;;;15.30;99.90;;;;;;4591631;19;19914;-27
2022/05/31 07:29:42;;;;;;;;;;;15.40;99.90;;;;;;4593167;19;19950;-25
2022/05/31 07:31:13;;;;;;;;;;;15.30;99.90;;;;;;4593834;19;20318;-22
2022/05/31 07:32:44;;;;;;;;;;;15.40;99.90;;;;;;4593938;19;19914;-28
2022/05/31 07:34:15;;;;;;;;;;;15.40;99.90;;;;;;4593824;19;19926;-22
2022/05/31 07:35:46;;;;;;;;;;;15.60;99.90;;;;;;4594086;19;19929;-23
2022/05/31 07:37:17;;;;;;;;;;;15.90;99.90;;;;;;4594667;19;19926;-26
2022/05/31 07:38:47;;;;;;;;;;;16.00;99.90;;;;;;4594390;19;19923;-23
2022/05/31 07:40:18;;;;;;;;;;;16.20;99.90;;;;;;4593601;19;19915;-23
2022/05/31 07:41:49;;;;;;;;;;;16.30;99.90;;;;;;4594078;19;19929;-24
2022/05/31 07:43:20;;;;;;;;;;;16.40;99.90;;;;;;4593365;19;20439;-23
2022/05/31 07:44:55;;;;;;;;;;;16.60;99.90;;;;;;4593956;19;19931;-25
2022/05/31 07:46:25;;;;;;;;;;;16.60;99.90;;;;;;4593713;19;19919;-23
2022/05/31 07:47:58;;;;;;;;;;;16.70;99.90;;;;;;4593614;19;19915;-25
2022/05/31 07:49:29;;;;;;;;;;;16.80;99.90;;;;;;4594002;19;19911;-24
2022/05/31 07:51:00;;;;;;;;;;;16.90;99.90;;;;;;4593392;19;19918;-24
2022/05/31 07:52:32;;;;;;;;;;;16.90;99.90;;;;;;4593222;19;20291;-23
2022/05/31 07:54:04;;;;;;;;;;;17.00;99.90;;;;;;4593616;19;19931;-23
2022/05/31 07:55:34;;;;;;;;;;;17.00;99.90;;;;;;4593780;19;19915;-24
2022/05/31 07:57:05;;;;;;;;;;;17.10;99.90;;;;;;4593457;19;20325;-23
2022/05/31 07:58:37;;;;;;;;;;;17.20;99.90;;;;;;4593162;19;19926;-26
2022/05/31 08:00:08;;;;;;;;;;;17.10;99.90;;;;;;4593982;19;19948;-25
2022/05/31 08:01:39;;;;;;;;;;;17.10;99.90;;;;;;4593898;19;20289;-24
2022/05/31 08:03:10;;;;;;;;;;;17.10;99.90;;;;;;4593284;19;19923;-26
2022/05/31 08:04:41;;;;;;;;;;;17.10;99.90;;;;;;4592375;19;19922;-23
2022/05/31 08:06:13;;;;;;;;;;;17.10;99.90;;;;;;4593515;19;20329;-24
2022/05/31 08:07:44;;;;;;;;;;;17.10;99.90;;;;;;4593429;19;19922;-25
2022/05/31 08:09:15;;;;;;;;;;;17.10;99.90;;;;;;4590634;19;19915;-23
2022/05/31 08:10:46;;;;;;;;;;;17.10;99.90;;;;;;4587237;19;19923;-25
2022/05/31 08:12:17;;;;;;;;;;;17.10;99.90;;;;;;4593170;19;19923;-24
2022/05/31 08:13:48;;;;;;;;;;;17.10;99.90;;;;;;4592936;19;19925;-24
2022/05/31 08:15:19;;;;;;;;;;;17.10;99.90;;;;;;4593372;19;19918;-27
2022/05/31 08:16:51;;;;;;;;;;;17.10;99.90;;;;;;4592883;19;19925;-24
2022/05/31 08:18:22;;;;;;;;;;;17.10;99.90;;;;;;4593818;19;19971;-26
2022/05/31 08:19:54;;;;;;;;;;;17.00;99.90;;;;;;4592948;19;19911;-26
2022/05/31 08:21:30;;;;;;;;;;;17.10;99.90;;;;;;4592951;19;19915;-23
2022/05/31 08:23:02;;;;;;;;;;;17.30;99.90;;;;;;4592861;19;19919;-23
2022/05/31 08:24:34;;;;;;;;;;;17.40;99.90;;;;;;4593786;19;19914;-23
2022/05/31 08:26:05;;;;;;;;;;;17.60;99.90;;;;;;4592624;19;19919;-24
2022/05/31 08:27:36;;;;;;;;;;;17.60;99.90;;;;;;4593085;19;19927;-24
2022/05/31 08:29:07;;;;;;;;;;;17.80;99.90;;;;;;4592784;19;19919;-27
2022/05/31 08:30:38;;;;;;;;;;;17.90;99.90;;;;;;4592923;19;19918;-24
2022/05/31 08:32:09;;;;;;;;;;;17.90;99.90;;;;;;4593040;19;19921;-24
2022/05/31 08:33:40;;;;;;;;;;;17.90;99.90;;;;;;4593233;19;19926;-24
2022/05/31 08:35:11;;;;;;;;;;;18.00;99.90;;;;;;4592874;19;19911;-24
2022/05/31 08:36:42;;;;;;;;;;;18.10;99.90;;;;;;4592848;19;19941;-24
2022/05/31 08:38:15;;;;;;;;;;;18.10;99.90;;;;;;4592651;19;19919;-26
2022/05/31 08:39:45;;;;;;;;;;;18.00;99.90;;;;;;4593089;19;20318;-24
2022/05/31 08:41:27;;;;;;;;;;;18.10;99.90;;;;;;4593104;19;19921;-25
2022/05/31 08:42:58;;;;;;;;;;;18.10;99.90;;;;;;4592074;19;19919;-23
2022/05/31 08:44:37;;;;;;;;;;;18.10;99.90;;;;;;4591626;19;19966;-23
2022/05/31 08:46:11;;;;;;;;;;;18.10;99.90;;;;;;4592001;19;19974;-26
2022/05/31 08:47:44;;;;;;;;;;;18.20;99.90;;;;;;4591461;19;19919;-23
2022/05/31 08:49:18;;;;;;;;;;;18.10;99.90;;;;;;4591744;19;20321;-22
2022/05/31 08:53:00;;;;;;;;;;;17.40;99.90;;;;;;4589527;19;20317;-24
2022/05/31 08:58:13;;;;;;;;;;;17.00;99.90;;;;;;4590612;19;20259;-24
2022/05/31 08:59:47;;;;;;;;;;;16.90;99.90;;;;;;4590990;19;19994;-23
2022/05/31 09:01:18;;;;;;;;;;;16.80;99.90;;;;;;4591032;19;20368;-24
2022/05/31 09:03:08;;;;;;;;;;;16.80;99.90;;;;;;4591199;19;19919;-24
2022/05/31 09:04:39;;;;;;;;;;;16.70;99.90;;;;;;4592352;19;19978;-28
2022/05/31 09:06:12;;;;;;;;;;;16.50;99.90;;;;;;4593229;19;19914;-28
2022/05/31 09:07:47;;;;;;;;;;;16.50;99.90;;;;;;4591105;19;19925;-25
2022/05/31 09:09:26;;;;;;;;;;;16.40;99.90;;;;;;4591659;19;19915;-25